sensor_id;sensor_type;location;lat;lon;timestamp;P1;durP1;ratioP1;P2;durP2;ratioP2
11996;SDS011;6058;48.704;9.474;2022-12-18T00:00:44;35.00;;;14.87;;
11996;SDS011;6058;48.704;9.474;2022-12-18T00:03:13;44.27;;;18.50;;
11996;SDS011;6058;48.704;9.474;2022-12-18T00:05:45;27.23;;;14.97;;
11996;SDS011;6058;48.704;9.474;2022-12-18T00:08:12;33.53;;;17.10;;
11996;SDS011;6058;48.704;9.474;2022-12-18T00:10:39;43.30;;;17.50;;
11996;SDS011;6058;48.704;9.474;2022-12-18T00:13:07;34.07;;;15.50;;
11996;SDS011;6058;48.704;9.474;2022-12-18T00:15:35;35.00;;;16.60;;
11996;SDS011;6058;48.704;9.474;2022-12-18T00:18:02;43.60;;;16.80;;
11996;SDS011;6058;48.704;9.474;2022-12-18T00:20:30;41.13;;;17.03;;
11996;SDS011;6058;48.704;9.474;2022-12-18T00:22:57;42.37;;;17.77;;
11996;SDS011;6058;48.704;9.474;2022-12-18T00:25:24;33.83;;;15.97;;
11996;SDS011;6058;48.704;9.474;2022-12-18T00:27:51;39.60;;;17.43;;
11996;SDS011;6058;48.704;9.474;2022-12-18T00:30:18;40.53;;;18.10;;
11996;SDS011;6058;48.704;9.474;2022-12-18T00:32:47;33.63;;;14.63;;
11996;SDS011;6058;48.704;9.474;2022-12-18T00:35:14;39.33;;;15.63;;
11996;SDS011;6058;48.704;9.474;2022-12-18T00:37:41;44.53;;;19.10;;
11996;SDS011;6058;48.704;9.474;2022-12-18T00:40:09;45.53;;;18.63;;
11996;SDS011;6058;48.704;9.474;2022-12-18T00:42:36;32.13;;;16.23;;
11996;SDS011;6058;48.704;9.474;2022-12-18T00:45:21;51.20;;;16.63;;
11996;SDS011;6058;48.704;9.474;2022-12-18T00:47:49;39.67;;;16.83;;
11996;SDS011;6058;48.704;9.474;2022-12-18T00:50:17;34.70;;;15.67;;
11996;SDS011;6058;48.704;9.474;2022-12-18T00:52:44;45.73;;;17.83;;
11996;SDS011;6058;48.704;9.474;2022-12-18T00:55:11;37.87;;;16.97;;
11996;SDS011;6058;48.704;9.474;2022-12-18T00:57:38;40.30;;;16.20;;
11996;SDS011;6058;48.704;9.474;2022-12-18T01:00:06;46.03;;;15.57;;
11996;SDS011;6058;48.704;9.474;2022-12-18T01:02:34;38.90;;;14.77;;
11996;SDS011;6058;48.704;9.474;2022-12-18T01:05:03;44.53;;;18.87;;
11996;SDS011;6058;48.704;9.474;2022-12-18T01:07:30;44.30;;;18.20;;
11996;SDS011;6058;48.704;9.474;2022-12-18T01:09:57;47.33;;;19.33;;
11996;SDS011;6058;48.704;9.474;2022-12-18T01:12:24;40.73;;;16.90;;
11996;SDS011;6058;48.704;9.474;2022-12-18T01:14:52;40.47;;;17.40;;
11996;SDS011;6058;48.704;9.474;2022-12-18T01:17:19;40.73;;;16.77;;
11996;SDS011;6058;48.704;9.474;2022-12-18T01:19:46;39.30;;;18.67;;
11996;SDS011;6058;48.704;9.474;2022-12-18T01:22:14;36.13;;;15.50;;
11996;SDS011;6058;48.704;9.474;2022-12-18T01:24:41;37.83;;;15.27;;
11996;SDS011;6058;48.704;9.474;2022-12-18T01:27:08;49.13;;;18.33;;
11996;SDS011;6058;48.704;9.474;2022-12-18T01:29:35;40.77;;;17.00;;
11996;SDS011;6058;48.704;9.474;2022-12-18T01:32:03;43.67;;;18.77;;
11996;SDS011;6058;48.704;9.474;2022-12-18T01:34:30;39.10;;;18.17;;
11996;SDS011;6058;48.704;9.474;2022-12-18T01:36:57;47.27;;;21.20;;
11996;SDS011;6058;48.704;9.474;2022-12-18T01:39:25;42.37;;;17.53;;
11996;SDS011;6058;48.704;9.474;2022-12-18T01:41:52;39.93;;;17.50;;
11996;SDS011;6058;48.704;9.474;2022-12-18T01:47:14;42.17;;;17.57;;
11996;SDS011;6058;48.704;9.474;2022-12-18T01:49:42;43.67;;;16.77;;
11996;SDS011;6058;48.704;9.474;2022-12-18T01:52:09;44.10;;;17.90;;
11996;SDS011;6058;48.704;9.474;2022-12-18T01:54:37;40.33;;;18.60;;
11996;SDS011;6058;48.704;9.474;2022-12-18T01:57:05;45.57;;;18.17;;
11996;SDS011;6058;48.704;9.474;2022-12-18T01:59:32;34.77;;;16.03;;
11996;SDS011;6058;48.704;9.474;2022-12-18T02:01:59;35.17;;;15.43;;
11996;SDS011;6058;48.704;9.474;2022-12-18T02:04:27;31.00;;;15.00;;
11996;SDS011;6058;48.704;9.474;2022-12-18T02:06:55;39.00;;;16.63;;
11996;SDS011;6058;48.704;9.474;2022-12-18T02:09:26;41.87;;;19.27;;
11996;SDS011;6058;48.704;9.474;2022-12-18T02:11:58;38.43;;;17.87;;
11996;SDS011;6058;48.704;9.474;2022-12-18T02:14:28;40.27;;;16.63;;
11996;SDS011;6058;48.704;9.474;2022-12-18T02:16:57;39.43;;;18.20;;
11996;SDS011;6058;48.704;9.474;2022-12-18T02:22:24;37.40;;;14.17;;
11996;SDS011;6058;48.704;9.474;2022-12-18T02:24:57;38.03;;;15.17;;
11996;SDS011;6058;48.704;9.474;2022-12-18T02:27:27;47.40;;;19.67;;
11996;SDS011;6058;48.704;9.474;2022-12-18T02:29:56;44.20;;;17.30;;
11996;SDS011;6058;48.704;9.474;2022-12-18T02:32:24;44.97;;;18.50;;
11996;SDS011;6058;48.704;9.474;2022-12-18T02:34:52;43.80;;;19.00;;
11996;SDS011;6058;48.704;9.474;2022-12-18T02:37:21;43.80;;;17.03;;
11996;SDS011;6058;48.704;9.474;2022-12-18T02:39:49;41.43;;;17.93;;
11996;SDS011;6058;48.704;9.474;2022-12-18T02:42:18;39.63;;;17.03;;
11996;SDS011;6058;48.704;9.474;2022-12-18T02:44:47;38.10;;;17.40;;
11996;SDS011;6058;48.704;9.474;2022-12-18T02:47:15;26.50;;;13.97;;
11996;SDS011;6058;48.704;9.474;2022-12-18T02:49:44;38.37;;;18.33;;
11996;SDS011;6058;48.704;9.474;2022-12-18T02:52:17;34.30;;;15.23;;
11996;SDS011;6058;48.704;9.474;2022-12-18T02:54:52;38.70;;;16.70;;
11996;SDS011;6058;48.704;9.474;2022-12-18T02:57:24;36.13;;;16.13;;
11996;SDS011;6058;48.704;9.474;2022-12-18T02:59:58;40.77;;;15.30;;
11996;SDS011;6058;48.704;9.474;2022-12-18T03:02:29;37.57;;;16.37;;
11996;SDS011;6058;48.704;9.474;2022-12-18T03:05:00;40.33;;;16.23;;
11996;SDS011;6058;48.704;9.474;2022-12-18T03:07:33;34.07;;;15.67;;
11996;SDS011;6058;48.704;9.474;2022-12-18T03:10:02;40.97;;;16.80;;
11996;SDS011;6058;48.704;9.474;2022-12-18T03:12:30;33.50;;;13.57;;
11996;SDS011;6058;48.704;9.474;2022-12-18T03:15:01;32.07;;;14.43;;
11996;SDS011;6058;48.704;9.474;2022-12-18T03:17:30;39.20;;;15.40;;
11996;SDS011;6058;48.704;9.474;2022-12-18T03:19:58;37.73;;;14.33;;
11996;SDS011;6058;48.704;9.474;2022-12-18T03:22:27;40.73;;;17.40;;
11996;SDS011;6058;48.704;9.474;2022-12-18T03:24:55;30.50;;;14.30;;
11996;SDS011;6058;48.704;9.474;2022-12-18T03:27:23;35.10;;;15.90;;
11996;SDS011;6058;48.704;9.474;2022-12-18T03:29:52;34.40;;;15.23;;
11996;SDS011;6058;48.704;9.474;2022-12-18T03:32:23;34.03;;;14.80;;
11996;SDS011;6058;48.704;9.474;2022-12-18T03:34:51;39.03;;;15.93;;
11996;SDS011;6058;48.704;9.474;2022-12-18T03:37:19;38.20;;;15.33;;
11996;SDS011;6058;48.704;9.474;2022-12-18T03:39:46;33.93;;;15.80;;
11996;SDS011;6058;48.704;9.474;2022-12-18T03:42:15;29.20;;;15.43;;
11996;SDS011;6058;48.704;9.474;2022-12-18T03:44:44;31.13;;;14.90;;
11996;SDS011;6058;48.704;9.474;2022-12-18T03:47:15;31.10;;;14.40;;
11996;SDS011;6058;48.704;9.474;2022-12-18T03:49:46;34.67;;;14.80;;
11996;SDS011;6058;48.704;9.474;2022-12-18T03:52:17;31.00;;;14.50;;
11996;SDS011;6058;48.704;9.474;2022-12-18T03:54:45;39.63;;;16.07;;
11996;SDS011;6058;48.704;9.474;2022-12-18T03:57:13;39.47;;;17.17;;
11996;SDS011;6058;48.704;9.474;2022-12-18T03:59:41;39.23;;;15.13;;
11996;SDS011;6058;48.704;9.474;2022-12-18T04:02:10;29.10;;;14.03;;
11996;SDS011;6058;48.704;9.474;2022-12-18T04:04:37;35.40;;;13.93;;
11996;SDS011;6058;48.704;9.474;2022-12-18T04:12:11;37.37;;;13.67;;
11996;SDS011;6058;48.704;9.474;2022-12-18T04:14:38;33.23;;;14.40;;
11996;SDS011;6058;48.704;9.474;2022-12-18T04:17:05;28.67;;;14.03;;
11996;SDS011;6058;48.704;9.474;2022-12-18T04:19:32;27.70;;;13.87;;
11996;SDS011;6058;48.704;9.474;2022-12-18T04:21:59;29.30;;;12.57;;
11996;SDS011;6058;48.704;9.474;2022-12-18T04:24:26;31.87;;;12.77;;
11996;SDS011;6058;48.704;9.474;2022-12-18T04:26:54;28.67;;;12.37;;
11996;SDS011;6058;48.704;9.474;2022-12-18T04:29:22;30.77;;;14.20;;
11996;SDS011;6058;48.704;9.474;2022-12-18T04:31:49;31.87;;;13.37;;
11996;SDS011;6058;48.704;9.474;2022-12-18T04:34:17;29.70;;;11.60;;
11996;SDS011;6058;48.704;9.474;2022-12-18T04:36:44;32.77;;;13.83;;
11996;SDS011;6058;48.704;9.474;2022-12-18T04:39:11;32.00;;;14.10;;
11996;SDS011;6058;48.704;9.474;2022-12-18T04:41:38;34.20;;;12.90;;
11996;SDS011;6058;48.704;9.474;2022-12-18T04:44:06;29.30;;;13.13;;
11996;SDS011;6058;48.704;9.474;2022-12-18T04:46:34;25.03;;;12.47;;
11996;SDS011;6058;48.704;9.474;2022-12-18T04:49:02;37.77;;;14.10;;
11996;SDS011;6058;48.704;9.474;2022-12-18T04:51:29;33.10;;;14.17;;
11996;SDS011;6058;48.704;9.474;2022-12-18T04:53:56;34.87;;;13.07;;
11996;SDS011;6058;48.704;9.474;2022-12-18T04:56:23;34.30;;;15.17;;
11996;SDS011;6058;48.704;9.474;2022-12-18T04:58:50;36.50;;;15.47;;
11996;SDS011;6058;48.704;9.474;2022-12-18T05:01:17;30.40;;;12.47;;
11996;SDS011;6058;48.704;9.474;2022-12-18T05:03:46;28.00;;;12.47;;
11996;SDS011;6058;48.704;9.474;2022-12-18T05:06:13;29.03;;;14.30;;
11996;SDS011;6058;48.704;9.474;2022-12-18T05:08:40;28.10;;;13.93;;
11996;SDS011;6058;48.704;9.474;2022-12-18T05:11:08;29.10;;;13.37;;
11996;SDS011;6058;48.704;9.474;2022-12-18T05:13:36;30.27;;;14.37;;
11996;SDS011;6058;48.704;9.474;2022-12-18T05:16:04;34.40;;;14.13;;
11996;SDS011;6058;48.704;9.474;2022-12-18T05:18:31;32.90;;;14.17;;
11996;SDS011;6058;48.704;9.474;2022-12-18T05:21:00;34.97;;;14.20;;
11996;SDS011;6058;48.704;9.474;2022-12-18T05:23:27;27.37;;;12.00;;
11996;SDS011;6058;48.704;9.474;2022-12-18T05:25:55;23.70;;;11.23;;
11996;SDS011;6058;48.704;9.474;2022-12-18T05:28:23;24.17;;;12.30;;
11996;SDS011;6058;48.704;9.474;2022-12-18T05:30:51;29.90;;;13.03;;
11996;SDS011;6058;48.704;9.474;2022-12-18T05:33:19;31.53;;;12.67;;
11996;SDS011;6058;48.704;9.474;2022-12-18T05:35:49;22.73;;;12.23;;
11996;SDS011;6058;48.704;9.474;2022-12-18T05:38:18;26.37;;;11.90;;
11996;SDS011;6058;48.704;9.474;2022-12-18T05:40:46;26.37;;;11.33;;
11996;SDS011;6058;48.704;9.474;2022-12-18T05:43:14;29.67;;;12.30;;
11996;SDS011;6058;48.704;9.474;2022-12-18T05:45:41;21.07;;;11.27;;
11996;SDS011;6058;48.704;9.474;2022-12-18T05:48:08;26.63;;;12.87;;
11996;SDS011;6058;48.704;9.474;2022-12-18T05:50:36;21.87;;;11.57;;
11996;SDS011;6058;48.704;9.474;2022-12-18T05:53:03;25.53;;;12.27;;
11996;SDS011;6058;48.704;9.474;2022-12-18T05:55:33;23.40;;;10.77;;
11996;SDS011;6058;48.704;9.474;2022-12-18T05:58:01;27.17;;;13.37;;
11996;SDS011;6058;48.704;9.474;2022-12-18T06:00:28;25.03;;;11.60;;
11996;SDS011;6058;48.704;9.474;2022-12-18T06:02:59;21.73;;;10.67;;
11996;SDS011;6058;48.704;9.474;2022-12-18T06:05:27;29.33;;;13.37;;
11996;SDS011;6058;48.704;9.474;2022-12-18T06:07:54;31.27;;;13.90;;
11996;SDS011;6058;48.704;9.474;2022-12-18T06:10:21;21.77;;;10.37;;
11996;SDS011;6058;48.704;9.474;2022-12-18T06:12:49;22.03;;;12.37;;
11996;SDS011;6058;48.704;9.474;2022-12-18T06:15:17;46.40;;;13.50;;
11996;SDS011;6058;48.704;9.474;2022-12-18T06:17:44;25.27;;;13.00;;
11996;SDS011;6058;48.704;9.474;2022-12-18T06:20:11;29.27;;;13.40;;
11996;SDS011;6058;48.704;9.474;2022-12-18T06:22:38;29.03;;;12.67;;
11996;SDS011;6058;48.704;9.474;2022-12-18T06:25:05;32.90;;;12.67;;
11996;SDS011;6058;48.704;9.474;2022-12-18T06:27:33;30.97;;;12.07;;
11996;SDS011;6058;48.704;9.474;2022-12-18T06:30:01;27.27;;;12.97;;
11996;SDS011;6058;48.704;9.474;2022-12-18T06:32:28;26.47;;;13.23;;
11996;SDS011;6058;48.704;9.474;2022-12-18T06:34:55;33.87;;;14.33;;
11996;SDS011;6058;48.704;9.474;2022-12-18T06:37:23;34.20;;;12.23;;
11996;SDS011;6058;48.704;9.474;2022-12-18T06:39:51;25.03;;;11.70;;
11996;SDS011;6058;48.704;9.474;2022-12-18T06:42:18;27.90;;;10.60;;
11996;SDS011;6058;48.704;9.474;2022-12-18T06:44:45;33.27;;;12.93;;
11996;SDS011;6058;48.704;9.474;2022-12-18T06:47:13;27.50;;;11.53;;
11996;SDS011;6058;48.704;9.474;2022-12-18T06:49:40;32.13;;;13.97;;
11996;SDS011;6058;48.704;9.474;2022-12-18T06:52:08;22.57;;;9.77;;
11996;SDS011;6058;48.704;9.474;2022-12-18T06:54:35;25.90;;;11.50;;
11996;SDS011;6058;48.704;9.474;2022-12-18T06:57:02;24.00;;;11.13;;
11996;SDS011;6058;48.704;9.474;2022-12-18T06:59:29;25.20;;;12.27;;
11996;SDS011;6058;48.704;9.474;2022-12-18T07:01:56;24.23;;;12.13;;
11996;SDS011;6058;48.704;9.474;2022-12-18T07:04:28;19.93;;;10.13;;
11996;SDS011;6058;48.704;9.474;2022-12-18T07:06:55;21.77;;;11.07;;
11996;SDS011;6058;48.704;9.474;2022-12-18T07:09:23;23.13;;;10.87;;
11996;SDS011;6058;48.704;9.474;2022-12-18T07:11:50;21.93;;;9.97;;
11996;SDS011;6058;48.704;9.474;2022-12-18T07:14:17;29.83;;;13.27;;
11996;SDS011;6058;48.704;9.474;2022-12-18T07:16:44;22.77;;;10.27;;
11996;SDS011;6058;48.704;9.474;2022-12-18T07:19:11;22.60;;;10.57;;
11996;SDS011;6058;48.704;9.474;2022-12-18T07:21:40;27.73;;;9.97;;
11996;SDS011;6058;48.704;9.474;2022-12-18T07:24:07;27.90;;;10.73;;
11996;SDS011;6058;48.704;9.474;2022-12-18T07:26:34;30.67;;;10.97;;
11996;SDS011;6058;48.704;9.474;2022-12-18T07:29:01;24.53;;;9.90;;
11996;SDS011;6058;48.704;9.474;2022-12-18T07:31:28;26.80;;;11.63;;
11996;SDS011;6058;48.704;9.474;2022-12-18T07:33:55;24.50;;;11.50;;
11996;SDS011;6058;48.704;9.474;2022-12-18T07:36:22;19.30;;;10.63;;
11996;SDS011;6058;48.704;9.474;2022-12-18T07:38:51;16.60;;;9.30;;
11996;SDS011;6058;48.704;9.474;2022-12-18T07:41:18;23.50;;;10.33;;
11996;SDS011;6058;48.704;9.474;2022-12-18T07:43:48;23.73;;;11.17;;
11996;SDS011;6058;48.704;9.474;2022-12-18T07:46:16;27.20;;;10.60;;
11996;SDS011;6058;48.704;9.474;2022-12-18T07:48:43;22.03;;;11.73;;
11996;SDS011;6058;48.704;9.474;2022-12-18T07:51:10;25.30;;;11.03;;
11996;SDS011;6058;48.704;9.474;2022-12-18T07:53:38;23.47;;;10.90;;
11996;SDS011;6058;48.704;9.474;2022-12-18T07:56:07;23.27;;;11.87;;
11996;SDS011;6058;48.704;9.474;2022-12-18T07:58:35;25.23;;;9.87;;
11996;SDS011;6058;48.704;9.474;2022-12-18T08:01:03;22.60;;;10.67;;
11996;SDS011;6058;48.704;9.474;2022-12-18T08:03:30;24.77;;;10.93;;
11996;SDS011;6058;48.704;9.474;2022-12-18T08:05:58;24.00;;;11.87;;
11996;SDS011;6058;48.704;9.474;2022-12-18T08:08:27;25.63;;;11.47;;
11996;SDS011;6058;48.704;9.474;2022-12-18T08:10:54;30.93;;;12.00;;
11996;SDS011;6058;48.704;9.474;2022-12-18T08:13:22;30.57;;;13.30;;
11996;SDS011;6058;48.704;9.474;2022-12-18T08:15:55;31.87;;;11.87;;
11996;SDS011;6058;48.704;9.474;2022-12-18T08:18:23;19.33;;;9.40;;
11996;SDS011;6058;48.704;9.474;2022-12-18T08:23:21;28.93;;;13.63;;
11996;SDS011;6058;48.704;9.474;2022-12-18T08:25:48;23.43;;;11.10;;
11996;SDS011;6058;48.704;9.474;2022-12-18T08:28:16;26.07;;;12.23;;
11996;SDS011;6058;48.704;9.474;2022-12-18T08:30:44;29.27;;;15.00;;
11996;SDS011;6058;48.704;9.474;2022-12-18T08:33:12;27.87;;;13.87;;
11996;SDS011;6058;48.704;9.474;2022-12-18T08:35:39;37.10;;;16.13;;
11996;SDS011;6058;48.704;9.474;2022-12-18T08:38:06;31.47;;;15.20;;
11996;SDS011;6058;48.704;9.474;2022-12-18T08:40:33;28.67;;;14.40;;
11996;SDS011;6058;48.704;9.474;2022-12-18T08:43:00;31.13;;;14.07;;
11996;SDS011;6058;48.704;9.474;2022-12-18T08:45:46;31.50;;;16.40;;
11996;SDS011;6058;48.704;9.474;2022-12-18T08:48:13;36.03;;;17.30;;
11996;SDS011;6058;48.704;9.474;2022-12-18T08:50:40;40.33;;;17.47;;
11996;SDS011;6058;48.704;9.474;2022-12-18T08:53:07;31.20;;;15.20;;
11996;SDS011;6058;48.704;9.474;2022-12-18T08:55:35;31.67;;;15.07;;
11996;SDS011;6058;48.704;9.474;2022-12-18T08:58:03;26.53;;;15.90;;
11996;SDS011;6058;48.704;9.474;2022-12-18T09:00:30;39.77;;;16.57;;
11996;SDS011;6058;48.704;9.474;2022-12-18T09:02:59;30.60;;;14.90;;
11996;SDS011;6058;48.704;9.474;2022-12-18T09:05:27;33.00;;;15.40;;
11996;SDS011;6058;48.704;9.474;2022-12-18T09:07:54;32.63;;;17.03;;
11996;SDS011;6058;48.704;9.474;2022-12-18T09:10:21;32.80;;;16.23;;
11996;SDS011;6058;48.704;9.474;2022-12-18T09:12:48;28.37;;;15.50;;
11996;SDS011;6058;48.704;9.474;2022-12-18T09:15:15;40.33;;;18.87;;
11996;SDS011;6058;48.704;9.474;2022-12-18T09:17:42;33.97;;;16.70;;
11996;SDS011;6058;48.704;9.474;2022-12-18T09:20:11;36.07;;;17.33;;
11996;SDS011;6058;48.704;9.474;2022-12-18T09:22:38;29.40;;;15.00;;
11996;SDS011;6058;48.704;9.474;2022-12-18T09:25:05;30.07;;;16.83;;
11996;SDS011;6058;48.704;9.474;2022-12-18T09:27:33;34.70;;;15.93;;
11996;SDS011;6058;48.704;9.474;2022-12-18T09:30:01;39.53;;;17.93;;
11996;SDS011;6058;48.704;9.474;2022-12-18T09:32:28;39.53;;;17.23;;
11996;SDS011;6058;48.704;9.474;2022-12-18T09:34:55;36.10;;;16.27;;
11996;SDS011;6058;48.704;9.474;2022-12-18T09:37:23;31.67;;;16.70;;
11996;SDS011;6058;48.704;9.474;2022-12-18T09:39:50;33.87;;;17.30;;
11996;SDS011;6058;48.704;9.474;2022-12-18T09:42:19;35.17;;;17.97;;
11996;SDS011;6058;48.704;9.474;2022-12-18T09:44:48;35.87;;;18.37;;
11996;SDS011;6058;48.704;9.474;2022-12-18T09:47:17;31.73;;;16.90;;
11996;SDS011;6058;48.704;9.474;2022-12-18T09:49:46;36.77;;;17.90;;
11996;SDS011;6058;48.704;9.474;2022-12-18T09:52:16;34.37;;;17.57;;
11996;SDS011;6058;48.704;9.474;2022-12-18T09:54:46;35.40;;;15.67;;
11996;SDS011;6058;48.704;9.474;2022-12-18T09:57:16;31.27;;;16.17;;
11996;SDS011;6058;48.704;9.474;2022-12-18T09:59:45;32.87;;;16.83;;
11996;SDS011;6058;48.704;9.474;2022-12-18T10:02:16;34.63;;;17.03;;
11996;SDS011;6058;48.704;9.474;2022-12-18T10:04:44;33.97;;;17.10;;
11996;SDS011;6058;48.704;9.474;2022-12-18T10:07:14;34.97;;;16.87;;
11996;SDS011;6058;48.704;9.474;2022-12-18T10:12:14;34.73;;;18.47;;
11996;SDS011;6058;48.704;9.474;2022-12-18T10:14:46;33.77;;;16.67;;
11996;SDS011;6058;48.704;9.474;2022-12-18T10:17:16;36.67;;;17.10;;
11996;SDS011;6058;48.704;9.474;2022-12-18T10:19:47;35.13;;;16.43;;
11996;SDS011;6058;48.704;9.474;2022-12-18T10:22:19;38.47;;;19.13;;
11996;SDS011;6058;48.704;9.474;2022-12-18T10:24:50;31.90;;;16.40;;
11996;SDS011;6058;48.704;9.474;2022-12-18T10:27:23;30.90;;;16.10;;
11996;SDS011;6058;48.704;9.474;2022-12-18T10:29:51;34.97;;;15.83;;
11996;SDS011;6058;48.704;9.474;2022-12-18T10:32:19;33.40;;;16.80;;
11996;SDS011;6058;48.704;9.474;2022-12-18T10:34:47;40.23;;;15.93;;
11996;SDS011;6058;48.704;9.474;2022-12-18T10:37:15;33.97;;;17.87;;
11996;SDS011;6058;48.704;9.474;2022-12-18T10:39:43;39.20;;;18.37;;
11996;SDS011;6058;48.704;9.474;2022-12-18T10:42:13;52.50;;;19.47;;
11996;SDS011;6058;48.704;9.474;2022-12-18T10:44:44;39.77;;;18.70;;
11996;SDS011;6058;48.704;9.474;2022-12-18T10:47:12;40.50;;;19.00;;
11996;SDS011;6058;48.704;9.474;2022-12-18T10:49:42;42.03;;;20.70;;
11996;SDS011;6058;48.704;9.474;2022-12-18T10:52:14;38.10;;;20.37;;
11996;SDS011;6058;48.704;9.474;2022-12-18T10:54:45;38.97;;;17.97;;
11996;SDS011;6058;48.704;9.474;2022-12-18T10:57:14;37.30;;;18.60;;
11996;SDS011;6058;48.704;9.474;2022-12-18T10:59:50;41.60;;;19.47;;
11996;SDS011;6058;48.704;9.474;2022-12-18T11:02:24;42.53;;;20.10;;
11996;SDS011;6058;48.704;9.474;2022-12-18T11:04:53;43.50;;;20.63;;
11996;SDS011;6058;48.704;9.474;2022-12-18T11:07:20;42.57;;;19.83;;
11996;SDS011;6058;48.704;9.474;2022-12-18T11:09:59;37.63;;;19.57;;
11996;SDS011;6058;48.704;9.474;2022-12-18T11:12:26;39.33;;;19.60;;
11996;SDS011;6058;48.704;9.474;2022-12-18T11:14:56;38.07;;;20.17;;
11996;SDS011;6058;48.704;9.474;2022-12-18T11:17:25;39.87;;;20.90;;
11996;SDS011;6058;48.704;9.474;2022-12-18T11:19:54;42.97;;;20.90;;
11996;SDS011;6058;48.704;9.474;2022-12-18T11:22:23;40.83;;;19.03;;
11996;SDS011;6058;48.704;9.474;2022-12-18T11:24:52;38.90;;;18.60;;
11996;SDS011;6058;48.704;9.474;2022-12-18T11:27:20;40.10;;;19.30;;
11996;SDS011;6058;48.704;9.474;2022-12-18T11:29:47;42.67;;;21.50;;
11996;SDS011;6058;48.704;9.474;2022-12-18T11:32:23;38.97;;;20.27;;
11996;SDS011;6058;48.704;9.474;2022-12-18T11:34:52;43.30;;;19.93;;
11996;SDS011;6058;48.704;9.474;2022-12-18T11:37:20;44.23;;;20.23;;
11996;SDS011;6058;48.704;9.474;2022-12-18T11:39:49;39.17;;;19.50;;
11996;SDS011;6058;48.704;9.474;2022-12-18T11:42:20;39.63;;;20.40;;
11996;SDS011;6058;48.704;9.474;2022-12-18T11:44:48;42.13;;;22.00;;
11996;SDS011;6058;48.704;9.474;2022-12-18T11:47:24;37.97;;;20.60;;
11996;SDS011;6058;48.704;9.474;2022-12-18T11:49:54;37.67;;;19.07;;
11996;SDS011;6058;48.704;9.474;2022-12-18T11:52:23;45.07;;;21.37;;
11996;SDS011;6058;48.704;9.474;2022-12-18T11:54:51;36.80;;;18.93;;
11996;SDS011;6058;48.704;9.474;2022-12-18T11:57:22;37.43;;;19.60;;
11996;SDS011;6058;48.704;9.474;2022-12-18T11:59:53;35.43;;;18.67;;
11996;SDS011;6058;48.704;9.474;2022-12-18T12:02:29;37.43;;;18.93;;
11996;SDS011;6058;48.704;9.474;2022-12-18T12:05:08;29.93;;;15.63;;
11996;SDS011;6058;48.704;9.474;2022-12-18T12:07:41;33.63;;;17.13;;
11996;SDS011;6058;48.704;9.474;2022-12-18T12:10:14;36.13;;;18.53;;
11996;SDS011;6058;48.704;9.474;2022-12-18T12:12:48;32.03;;;14.90;;
11996;SDS011;6058;48.704;9.474;2022-12-18T12:15:25;34.67;;;16.63;;
11996;SDS011;6058;48.704;9.474;2022-12-18T12:18:00;36.43;;;15.00;;
11996;SDS011;6058;48.704;9.474;2022-12-18T12:20:33;29.03;;;14.13;;
11996;SDS011;6058;48.704;9.474;2022-12-18T12:23:05;30.37;;;14.80;;
11996;SDS011;6058;48.704;9.474;2022-12-18T12:25:36;28.00;;;13.30;;
11996;SDS011;6058;48.704;9.474;2022-12-18T12:28:12;26.30;;;13.23;;
11996;SDS011;6058;48.704;9.474;2022-12-18T12:30:44;28.43;;;12.93;;
11996;SDS011;6058;48.704;9.474;2022-12-18T12:33:17;33.47;;;15.87;;
11996;SDS011;6058;48.704;9.474;2022-12-18T12:35:51;27.03;;;14.20;;
11996;SDS011;6058;48.704;9.474;2022-12-18T12:38:20;19.20;;;9.13;;
11996;SDS011;6058;48.704;9.474;2022-12-18T12:40:49;37.13;;;16.67;;
11996;SDS011;6058;48.704;9.474;2022-12-18T12:43:22;17.00;;;8.20;;
11996;SDS011;6058;48.704;9.474;2022-12-18T12:45:52;17.50;;;7.17;;
11996;SDS011;6058;48.704;9.474;2022-12-18T12:48:24;24.73;;;12.20;;
11996;SDS011;6058;48.704;9.474;2022-12-18T12:50:57;26.53;;;11.70;;
11996;SDS011;6058;48.704;9.474;2022-12-18T12:53:29;26.10;;;12.27;;
11996;SDS011;6058;48.704;9.474;2022-12-18T12:55:57;33.83;;;13.57;;
11996;SDS011;6058;48.704;9.474;2022-12-18T12:58:26;25.67;;;12.03;;
11996;SDS011;6058;48.704;9.474;2022-12-18T13:00:59;30.60;;;12.10;;
11996;SDS011;6058;48.704;9.474;2022-12-18T13:03:31;19.80;;;9.70;;
11996;SDS011;6058;48.704;9.474;2022-12-18T13:06:03;28.53;;;13.97;;
11996;SDS011;6058;48.704;9.474;2022-12-18T13:08:51;32.60;;;14.10;;
11996;SDS011;6058;48.704;9.474;2022-12-18T13:11:28;32.50;;;14.33;;
11996;SDS011;6058;48.704;9.474;2022-12-18T13:14:19;32.47;;;16.43;;
11996;SDS011;6058;48.704;9.474;2022-12-18T13:16:47;26.20;;;12.83;;
11996;SDS011;6058;48.704;9.474;2022-12-18T13:19:21;32.10;;;14.50;;
11996;SDS011;6058;48.704;9.474;2022-12-18T13:21:52;29.20;;;12.27;;
11996;SDS011;6058;48.704;9.474;2022-12-18T13:24:22;29.23;;;13.87;;
11996;SDS011;6058;48.704;9.474;2022-12-18T13:26:50;26.90;;;12.07;;
11996;SDS011;6058;48.704;9.474;2022-12-18T13:32:00;34.53;;;15.37;;
11996;SDS011;6058;48.704;9.474;2022-12-18T13:34:29;25.60;;;10.40;;
11996;SDS011;6058;48.704;9.474;2022-12-18T13:36:57;28.43;;;13.03;;
11996;SDS011;6058;48.704;9.474;2022-12-18T13:39:44;28.93;;;12.73;;
11996;SDS011;6058;48.704;9.474;2022-12-18T13:48:00;29.93;;;13.40;;
11996;SDS011;6058;48.704;9.474;2022-12-18T13:50:29;26.37;;;13.53;;
11996;SDS011;6058;48.704;9.474;2022-12-18T13:52:56;27.83;;;13.33;;
11996;SDS011;6058;48.704;9.474;2022-12-18T13:55:24;35.07;;;17.43;;
11996;SDS011;6058;48.704;9.474;2022-12-18T13:57:52;30.33;;;13.77;;
11996;SDS011;6058;48.704;9.474;2022-12-18T14:00:29;28.77;;;12.93;;
11996;SDS011;6058;48.704;9.474;2022-12-18T14:02:57;21.80;;;10.07;;
11996;SDS011;6058;48.704;9.474;2022-12-18T14:05:25;28.00;;;12.33;;
11996;SDS011;6058;48.704;9.474;2022-12-18T14:07:53;27.73;;;13.23;;
11996;SDS011;6058;48.704;9.474;2022-12-18T14:10:36;29.00;;;13.20;;
11996;SDS011;6058;48.704;9.474;2022-12-18T14:13:06;33.13;;;13.97;;
11996;SDS011;6058;48.704;9.474;2022-12-18T14:15:35;26.07;;;13.30;;
11996;SDS011;6058;48.704;9.474;2022-12-18T14:18:09;29.10;;;14.20;;
11996;SDS011;6058;48.704;9.474;2022-12-18T14:20:41;27.87;;;12.20;;
11996;SDS011;6058;48.704;9.474;2022-12-18T14:23:24;30.13;;;14.13;;
11996;SDS011;6058;48.704;9.474;2022-12-18T14:25:53;32.73;;;13.97;;
11996;SDS011;6058;48.704;9.474;2022-12-18T14:28:21;34.07;;;13.63;;
11996;SDS011;6058;48.704;9.474;2022-12-18T14:30:48;30.33;;;14.00;;
11996;SDS011;6058;48.704;9.474;2022-12-18T14:33:16;33.20;;;14.47;;
11996;SDS011;6058;48.704;9.474;2022-12-18T14:35:52;32.97;;;14.40;;
11996;SDS011;6058;48.704;9.474;2022-12-18T14:38:22;28.97;;;14.57;;
11996;SDS011;6058;48.704;9.474;2022-12-18T14:40:54;29.47;;;12.50;;
11996;SDS011;6058;48.704;9.474;2022-12-18T14:43:26;25.80;;;11.80;;
11996;SDS011;6058;48.704;9.474;2022-12-18T14:45:54;26.17;;;12.90;;
11996;SDS011;6058;48.704;9.474;2022-12-18T14:48:22;26.77;;;12.77;;
11996;SDS011;6058;48.704;9.474;2022-12-18T14:50:56;26.77;;;13.03;;
11996;SDS011;6058;48.704;9.474;2022-12-18T14:53:27;27.63;;;13.03;;
11996;SDS011;6058;48.704;9.474;2022-12-18T14:55:57;29.80;;;13.00;;
11996;SDS011;6058;48.704;9.474;2022-12-18T14:58:24;25.30;;;11.97;;
11996;SDS011;6058;48.704;9.474;2022-12-18T15:00:52;25.10;;;12.07;;
11996;SDS011;6058;48.704;9.474;2022-12-18T15:03:19;22.87;;;11.10;;
11996;SDS011;6058;48.704;9.474;2022-12-18T15:05:47;25.77;;;12.30;;
11996;SDS011;6058;48.704;9.474;2022-12-18T15:08:27;26.90;;;12.20;;
11996;SDS011;6058;48.704;9.474;2022-12-18T15:10:55;31.80;;;13.50;;